Time,TemperatureF,DewpointF,PressureIn,WindDirection,WindDirectionDegrees,WindSpeedMPH,WindSpeedGustMPH,Humidity,HourlyPrecipIn,Conditions,Clouds,dailyrainin,SoftwareType,DateUTC
2013-01-27 09:52:00,39.0,39.0,26.06,SE,126,0.0,3.0,99,0.00,,,0.06,,2013-01-27 17:52:00,
2013-01-27 10:02:00,40.0,40.0,26.06,East,86,0.0,3.0,100,0.00,,,0.06,,2013-01-27 18:02:00,
2013-01-27 10:11:00,40.0,40.0,26.06,East,86,0.0,3.0,100,0.00,,,0.06,,2013-01-27 18:11:00,
2013-01-27 10:22:00,41.0,41.0,26.06,ESE,107,1.0,3.0,100,0.00,,,0.06,,2013-01-27 18:22:00,
2013-01-27 10:32:00,41.0,41.0,26.06,ENE,78,1.0,4.0,100,0.00,,,0.06,,2013-01-27 18:32:00,
2013-01-27 10:41:00,41.0,41.0,26.06,ENE,78,1.0,4.0,100,0.00,,,0.06,,2013-01-27 18:41:00,
2013-01-27 10:51:00,41.0,41.0,26.06,SE,130,0.0,4.0,100,0.00,,,0.06,,2013-01-27 18:51:00,
2013-01-27 11:01:00,42.0,42.0,26.06,SE,127,0.0,2.0,100,0.04,,,0.10,,2013-01-27 19:01:00,
2013-01-27 11:11:00,42.0,42.0,26.06,SE,127,0.0,2.0,100,0.04,,,0.10,,2013-01-27 19:11:00,
2013-01-27 11:21:00,42.0,42.0,26.06,SE,127,0.0,1.0,99,0.04,,,0.06,,2013-01-27 19:21:00,
2013-01-27 11:32:00,42.0,42.0,26.06,SE,127,0.0,1.0,99,0.04,,,0.06,,2013-01-27 19:32:00,
2013-01-27 11:41:00,42.0,42.0,26.06,SE,127,0.0,1.0,99,0.04,,,0.06,,2013-01-27 19:41:00,
2013-01-27 11:51:00,42.0,42.0,26.06,SE,127,0.0,1.0,99,0.04,,,0.06,,2013-01-27 19:51:00,
2013-01-27 12:02:00,43.0,43.0,26.17,ESE,116,1.0,4.0,100,0.02,,,0.04,,2013-01-27 20:02:00,
2013-01-27 12:11:00,43.0,43.0,26.17,ESE,116,1.0,4.0,100,0.02,,,0.04,,2013-01-27 20:11:00,
2013-01-27 12:22:00,43.0,43.0,26.17,South,172,1.0,6.0,100,0.01,,,0.05,,2013-01-27 20:22:00,
2013-01-27 12:32:00,43.0,43.0,26.07,SE,142,2.0,6.0,99,0.01,,,0.05,,2013-01-27 20:32:00,
2013-01-27 12:41:00,43.0,43.0,26.07,SE,142,2.0,6.0,99,0.01,,,0.05,,2013-01-27 20:41:00,
2013-01-27 12:52:00,43.0,43.0,26.07,SE,141,0.0,6.0,100,0.01,,,0.05,,2013-01-27 20:52:00,
2013-01-27 13:01:00,43.0,43.0,26.07,SE,141,0.0,6.0,100,0.01,,,0.05,,2013-01-27 21:01:00,
2013-01-27 13:11:00,43.0,43.0,26.07,SE,141,0.0,6.0,100,0.01,,,0.05,,2013-01-27 21:11:00,
2013-01-27 13:21:00,43.0,43.0,26.05,South,175,0.0,6.0,99,0.00,,,0.05,,2013-01-27 21:21:00,
2013-01-27 13:32:00,44.0,43.0,26.05,South,173,1.0,5.0,98,0.00,,,0.05,,2013-01-27 21:32:00,
2013-01-27 13:42:00,44.0,43.0,26.05,South,173,1.0,5.0,98,0.00,,,0.05,,2013-01-27 21:42:00,
2013-01-27 13:51:00,44.0,43.0,26.07,SE,139,0.0,4.0,98,0.00,,,0.05,,2013-01-27 21:51:00,
2013-01-27 14:01:00,44.0,43.0,26.07,SE,139,0.0,4.0,98,0.00,,,0.05,,2013-01-27 22:01:00,
2013-01-27 14:11:00,44.0,43.0,26.07,SE,139,0.0,4.0,98,0.00,,,0.05,,2013-01-27 22:11:00,
2013-01-27 14:21:00,43.0,42.0,26.22,SSW,210,0.0,13.0,96,0.02,,,0.07,,2013-01-27 22:21:00,
2013-01-27 14:32:00,43.0,42.0,26.23,SSW,194,0.0,2.0,96,0.04,,,0.09,,2013-01-27 22:32:00,
2013-01-27 14:42:00,43.0,42.0,26.23,SSW,194,0.0,2.0,96,0.04,,,0.09,,2013-01-27 22:42:00,
2013-01-27 14:51:00,43.0,42.0,26.23,SSW,194,0.0,2.0,96,0.04,,,0.09,,2013-01-27 22:51:00,
2013-01-27 15:01:00,43.0,42.0,26.23,SSW,194,0.0,2.0,96,0.04,,,0.09,,2013-01-27 23:01:00,
2013-01-27 15:11:00,43.0,42.0,26.23,SSW,194,0.0,2.0,96,0.04,,,0.09,,2013-01-27 23:11:00,
2013-01-27 15:32:00,43.0,-99.9,26.01,North,-999,-999.0,3.0,-999,0.02,,,0.11,,2013-01-27 23:32:00,
2013-01-27 15:42:00,43.0,-99.9,26.01,North,-999,-999.0,3.0,-999,0.02,,,0.11,,2013-01-27 23:42:00,
2013-01-27 15:53:00,43.0,-99.9,26.01,North,-999,-999.0,3.0,-999,0.02,,,0.11,,2013-01-27 23:53:00,